sensor_id;sensor_type;location;lat;lon;timestamp;pressure;altitude;pressure_sealevel;temperature;humidity
23229;BME280;11783;50.350;6.576;2022-12-18T00:01:13;97188.53;;;-11.30;95.73
23229;BME280;11783;50.350;6.576;2022-12-18T00:03:38;97192.16;;;-11.34;95.39
23229;BME280;11783;50.350;6.576;2022-12-18T00:06:04;97188.88;;;-11.36;94.54
23229;BME280;11783;50.350;6.576;2022-12-18T00:08:29;97190.88;;;-11.41;94.62
23229;BME280;11783;50.350;6.576;2022-12-18T00:10:55;97177.38;;;-11.45;95.18
23229;BME280;11783;50.350;6.576;2022-12-18T00:13:20;97178.28;;;-11.46;95.41
23229;BME280;11783;50.350;6.576;2022-12-18T00:15:45;97179.88;;;-11.43;94.50
23229;BME280;11783;50.350;6.576;2022-12-18T00:18:11;97186.09;;;-11.47;94.32
23229;BME280;11783;50.350;6.576;2022-12-18T00:20:38;97174.56;;;-11.40;93.30
23229;BME280;11783;50.350;6.576;2022-12-18T00:23:04;97175.81;;;-11.47;93.19
23229;BME280;11783;50.350;6.576;2022-12-18T00:25:33;97170.44;;;-11.58;93.81
23229;BME280;11783;50.350;6.576;2022-12-18T00:27:58;97171.69;;;-11.66;93.48
23229;BME280;11783;50.350;6.576;2022-12-18T00:30:23;97170.63;;;-11.77;94.43
23229;BME280;11783;50.350;6.576;2022-12-18T00:32:49;97172.19;;;-11.75;94.36
23229;BME280;11783;50.350;6.576;2022-12-18T00:35:14;97163.75;;;-11.77;94.45
23229;BME280;11783;50.350;6.576;2022-12-18T00:37:39;97173.47;;;-11.82;94.13
23229;BME280;11783;50.350;6.576;2022-12-18T00:40:05;97173.38;;;-11.80;95.16
23229;BME280;11783;50.350;6.576;2022-12-18T00:42:30;97170.53;;;-11.76;95.04
23229;BME280;11783;50.350;6.576;2022-12-18T00:45:14;97176.31;;;-11.72;95.16
23229;BME280;11783;50.350;6.576;2022-12-18T00:47:40;97175.34;;;-11.70;94.57
23229;BME280;11783;50.350;6.576;2022-12-18T00:50:06;97175.81;;;-11.63;93.25
23229;BME280;11783;50.350;6.576;2022-12-18T00:52:31;97184.53;;;-11.66;91.72
23229;BME280;11783;50.350;6.576;2022-12-18T00:54:56;97180.31;;;-11.67;90.60
23229;BME280;11783;50.350;6.576;2022-12-18T00:57:22;97178.81;;;-11.71;89.97
23229;BME280;11783;50.350;6.576;2022-12-18T00:59:47;97182.53;;;-11.92;90.38
23229;BME280;11783;50.350;6.576;2022-12-18T01:02:12;97186.19;;;-11.96;90.99
23229;BME280;11783;50.350;6.576;2022-12-18T01:04:38;97189.72;;;-12.14;91.60
23229;BME280;11783;50.350;6.576;2022-12-18T01:07:03;97180.25;;;-12.30;92.63
23229;BME280;11783;50.350;6.576;2022-12-18T01:09:28;97183.06;;;-12.34;92.62
23229;BME280;11783;50.350;6.576;2022-12-18T01:11:54;97191.25;;;-12.43;93.22
23229;BME280;11783;50.350;6.576;2022-12-18T01:14:19;97185.72;;;-12.36;93.95
23229;BME280;11783;50.350;6.576;2022-12-18T01:16:44;97184.94;;;-12.20;94.40
23229;BME280;11783;50.350;6.576;2022-12-18T01:19:09;97180.81;;;-12.07;94.64
23229;BME280;11783;50.350;6.576;2022-12-18T01:21:35;97190.00;;;-12.03;94.26
23229;BME280;11783;50.350;6.576;2022-12-18T01:24:00;97202.63;;;-12.00;94.67
23229;BME280;11783;50.350;6.576;2022-12-18T01:26:26;97196.28;;;-11.93;94.08
23229;BME280;11783;50.350;6.576;2022-12-18T01:28:55;97193.13;;;-11.98;94.37
23229;BME280;11783;50.350;6.576;2022-12-18T01:31:23;97192.31;;;-11.99;94.43
23229;BME280;11783;50.350;6.576;2022-12-18T01:33:50;97182.97;;;-12.00;94.45
23229;BME280;11783;50.350;6.576;2022-12-18T01:36:20;97184.63;;;-11.99;94.56
23229;BME280;11783;50.350;6.576;2022-12-18T01:38:48;97180.56;;;-12.03;93.96
23229;BME280;11783;50.350;6.576;2022-12-18T01:41:17;97174.53;;;-12.02;93.62
23229;BME280;11783;50.350;6.576;2022-12-18T01:43:54;97170.56;;;-12.07;93.67
23229;BME280;11783;50.350;6.576;2022-12-18T01:46:22;97171.53;;;-12.10;93.88
23229;BME280;11783;50.350;6.576;2022-12-18T01:48:51;97169.06;;;-12.11;93.65
23229;BME280;11783;50.350;6.576;2022-12-18T01:51:17;97166.47;;;-12.27;93.37
23229;BME280;11783;50.350;6.576;2022-12-18T01:53:44;97170.84;;;-12.45;93.05
23229;BME280;11783;50.350;6.576;2022-12-18T01:56:16;97170.50;;;-12.39;92.94
23229;BME280;11783;50.350;6.576;2022-12-18T02:01:15;97159.91;;;-12.48;93.30
23229;BME280;11783;50.350;6.576;2022-12-18T02:03:44;97155.50;;;-12.62;93.43
23229;BME280;11783;50.350;6.576;2022-12-18T02:06:16;97161.53;;;-12.63;92.67
23229;BME280;11783;50.350;6.576;2022-12-18T02:09:11;97154.88;;;-12.67;93.12
23229;BME280;11783;50.350;6.576;2022-12-18T02:17:16;97153.25;;;-12.68;95.08
23229;BME280;11783;50.350;6.576;2022-12-18T02:28:00;97159.25;;;-12.69;94.84
23229;BME280;11783;50.350;6.576;2022-12-18T02:30:29;97155.22;;;-12.73;94.69
23229;BME280;11783;50.350;6.576;2022-12-18T02:32:57;97152.72;;;-12.75;95.36
23229;BME280;11783;50.350;6.576;2022-12-18T02:35:26;97155.22;;;-12.73;95.50
23229;BME280;11783;50.350;6.576;2022-12-18T02:37:56;97149.94;;;-12.70;95.43
23229;BME280;11783;50.350;6.576;2022-12-18T02:40:24;97148.59;;;-12.77;94.99
23229;BME280;11783;50.350;6.576;2022-12-18T02:42:51;97150.25;;;-12.76;94.58
23229;BME280;11783;50.350;6.576;2022-12-18T02:45:16;97152.50;;;-12.70;95.43
23229;BME280;11783;50.350;6.576;2022-12-18T02:47:43;97155.34;;;-12.59;94.72
23229;BME280;11783;50.350;6.576;2022-12-18T02:50:28;97153.44;;;-12.56;94.11
23229;BME280;11783;50.350;6.576;2022-12-18T03:03:51;97156.28;;;-12.77;93.45
23229;BME280;11783;50.350;6.576;2022-12-18T03:08:48;97165.94;;;-12.82;93.48
23229;BME280;11783;50.350;6.576;2022-12-18T03:11:16;97156.06;;;-12.90;93.52
23229;BME280;11783;50.350;6.576;2022-12-18T03:14:03;97155.25;;;-13.08;93.69
23229;BME280;11783;50.350;6.576;2022-12-18T03:16:31;97144.84;;;-13.05;93.94
23229;BME280;11783;50.350;6.576;2022-12-18T03:19:00;97143.50;;;-13.12;94.30
23229;BME280;11783;50.350;6.576;2022-12-18T03:21:29;97143.34;;;-13.09;94.93
23229;BME280;11783;50.350;6.576;2022-12-18T03:23:58;97132.97;;;-13.06;94.51
23229;BME280;11783;50.350;6.576;2022-12-18T03:26:25;97136.13;;;-13.01;95.34
23229;BME280;11783;50.350;6.576;2022-12-18T03:28:56;97129.28;;;-13.00;94.89
23229;BME280;11783;50.350;6.576;2022-12-18T03:31:24;97130.78;;;-12.96;94.97
23229;BME280;11783;50.350;6.576;2022-12-18T03:33:54;97124.84;;;-12.97;94.83
23229;BME280;11783;50.350;6.576;2022-12-18T03:36:19;97130.78;;;-12.96;95.20
23229;BME280;11783;50.350;6.576;2022-12-18T03:38:45;97120.84;;;-13.02;94.94
23229;BME280;11783;50.350;6.576;2022-12-18T03:41:21;97119.97;;;-13.01;93.88
23229;BME280;11783;50.350;6.576;2022-12-18T03:46:31;97122.72;;;-13.06;94.20
23229;BME280;11783;50.350;6.576;2022-12-18T03:49:10;97118.91;;;-13.15;93.98
23229;BME280;11783;50.350;6.576;2022-12-18T03:52:06;97118.91;;;-13.15;94.20
23229;BME280;11783;50.350;6.576;2022-12-18T03:54:35;97117.09;;;-13.12;93.94
23229;BME280;11783;50.350;6.576;2022-12-18T03:57:07;97111.31;;;-13.16;94.46
23229;BME280;11783;50.350;6.576;2022-12-18T03:59:35;97110.59;;;-13.18;94.42
23229;BME280;11783;50.350;6.576;2022-12-18T04:02:01;97109.91;;;-13.22;94.79
23229;BME280;11783;50.350;6.576;2022-12-18T04:04:30;97115.78;;;-13.20;95.05
23229;BME280;11783;50.350;6.576;2022-12-18T04:06:57;97112.13;;;-13.16;95.16
23229;BME280;11783;50.350;6.576;2022-12-18T04:09:23;97114.63;;;-13.14;95.30
23229;BME280;11783;50.350;6.576;2022-12-18T04:11:49;97107.63;;;-13.10;95.29
23229;BME280;11783;50.350;6.576;2022-12-18T04:14:14;97111.31;;;-13.16;95.08
23229;BME280;11783;50.350;6.576;2022-12-18T04:16:39;97113.72;;;-13.13;94.95
23229;BME280;11783;50.350;6.576;2022-12-18T04:19:05;97108.34;;;-13.08;95.45
23229;BME280;11783;50.350;6.576;2022-12-18T04:21:30;97112.34;;;-13.03;94.87
23229;BME280;11783;50.350;6.576;2022-12-18T04:23:55;97102.25;;;-13.06;94.50
23229;BME280;11783;50.350;6.576;2022-12-18T04:26:21;97112.50;;;-13.06;94.53
23229;BME280;11783;50.350;6.576;2022-12-18T04:28:47;97109.66;;;-13.17;93.94
23229;BME280;11783;50.350;6.576;2022-12-18T04:31:12;97111.22;;;-13.15;94.05
23229;BME280;11783;50.350;6.576;2022-12-18T04:33:38;97106.03;;;-13.13;93.84
23229;BME280;11783;50.350;6.576;2022-12-18T04:36:04;97095.50;;;-13.07;93.99
23229;BME280;11783;50.350;6.576;2022-12-18T04:38:30;97089.19;;;-13.00;93.87
23229;BME280;11783;50.350;6.576;2022-12-18T04:40:55;97094.13;;;-12.97;94.17
23229;BME280;11783;50.350;6.576;2022-12-18T04:43:20;97080.34;;;-12.94;93.99
23229;BME280;11783;50.350;6.576;2022-12-18T04:45:46;97075.75;;;-12.88;93.27
23229;BME280;11783;50.350;6.576;2022-12-18T04:48:11;97078.38;;;-12.89;93.44
23229;BME280;11783;50.350;6.576;2022-12-18T04:50:36;97074.25;;;-12.92;92.46
23229;BME280;11783;50.350;6.576;2022-12-18T04:53:01;97074.41;;;-12.95;91.84
23229;BME280;11783;50.350;6.576;2022-12-18T04:55:27;97071.69;;;-12.92;92.29
23229;BME280;11783;50.350;6.576;2022-12-18T04:57:53;97069.97;;;-12.91;92.12
23229;BME280;11783;50.350;6.576;2022-12-18T05:00:19;97064.00;;;-12.92;92.05
23229;BME280;11783;50.350;6.576;2022-12-18T05:02:46;97064.19;;;-12.95;91.76
23229;BME280;11783;50.350;6.576;2022-12-18T05:05:12;97062.69;;;-12.99;90.82
23229;BME280;11783;50.350;6.576;2022-12-18T05:07:37;97056.94;;;-13.04;90.78
23229;BME280;11783;50.350;6.576;2022-12-18T05:10:06;97072.38;;;-13.05;90.89
23229;BME280;11783;50.350;6.576;2022-12-18T05:12:32;97079.56;;;-13.12;90.89
23229;BME280;11783;50.350;6.576;2022-12-18T05:14:57;97077.34;;;-13.18;91.48
23229;BME280;11783;50.350;6.576;2022-12-18T05:17:23;97074.28;;;-13.09;91.88
23229;BME280;11783;50.350;6.576;2022-12-18T05:19:48;97084.59;;;-13.10;92.04
23229;BME280;11783;50.350;6.576;2022-12-18T05:22:13;97089.38;;;-13.04;92.32
23229;BME280;11783;50.350;6.576;2022-12-18T05:24:39;97083.38;;;-13.03;92.30
23229;BME280;11783;50.350;6.576;2022-12-18T05:27:04;97093.84;;;-13.08;92.42
23229;BME280;11783;50.350;6.576;2022-12-18T05:29:29;97100.44;;;-13.20;92.88
23229;BME280;11783;50.350;6.576;2022-12-18T05:31:55;97113.78;;;-13.15;93.56
23229;BME280;11783;50.350;6.576;2022-12-18T05:34:20;97105.69;;;-13.23;94.05
23229;BME280;11783;50.350;6.576;2022-12-18T05:36:45;97109.81;;;-13.20;94.16
23229;BME280;11783;50.350;6.576;2022-12-18T05:39:11;97116.66;;;-13.21;94.86
23229;BME280;11783;50.350;6.576;2022-12-18T05:41:36;97113.72;;;-13.13;94.19
23229;BME280;11783;50.350;6.576;2022-12-18T05:44:01;97120.91;;;-13.04;93.52
23229;BME280;11783;50.350;6.576;2022-12-18T05:46:27;97123.63;;;-13.07;93.25
23229;BME280;11783;50.350;6.576;2022-12-18T05:48:52;97125.38;;;-13.07;93.26
23229;BME280;11783;50.350;6.576;2022-12-18T05:51:20;97120.31;;;-13.09;93.40
23229;BME280;11783;50.350;6.576;2022-12-18T05:53:50;97123.03;;;-13.12;93.04
23229;BME280;11783;50.350;6.576;2022-12-18T05:56:20;97111.22;;;-13.15;92.28
23229;BME280;11783;50.350;6.576;2022-12-18T05:58:46;97103.06;;;-13.21;92.46
23229;BME280;11783;50.350;6.576;2022-12-18T06:01:17;97113.78;;;-13.15;92.03
23229;BME280;11783;50.350;6.576;2022-12-18T06:03:43;97122.28;;;-13.14;91.73
23229;BME280;11783;50.350;6.576;2022-12-18T06:06:18;97131.25;;;-13.23;92.16
23229;BME280;11783;50.350;6.576;2022-12-18T06:08:45;97127.72;;;-13.20;91.76
23229;BME280;11783;50.350;6.576;2022-12-18T06:11:10;97134.44;;;-13.18;91.80
23229;BME280;11783;50.350;6.576;2022-12-18T06:13:36;97125.84;;;-13.17;92.04
23229;BME280;11783;50.350;6.576;2022-12-18T06:16:05;97119.50;;;-13.09;92.42
23229;BME280;11783;50.350;6.576;2022-12-18T06:18:31;97129.56;;;-13.06;93.04
23229;BME280;11783;50.350;6.576;2022-12-18T06:20:57;97121.91;;;-13.06;93.26
23229;BME280;11783;50.350;6.576;2022-12-18T06:23:23;97128.75;;;-13.07;92.86
23229;BME280;11783;50.350;6.576;2022-12-18T06:25:48;97136.34;;;-13.05;93.13
23229;BME280;11783;50.350;6.576;2022-12-18T06:28:13;97121.22;;;-13.10;93.42
23229;BME280;11783;50.350;6.576;2022-12-18T06:30:39;97123.47;;;-13.04;93.37
23229;BME280;11783;50.350;6.576;2022-12-18T06:33:04;97125.22;;;-13.04;94.09
23229;BME280;11783;50.350;6.576;2022-12-18T06:35:29;97137.09;;;-13.03;93.31
23229;BME280;11783;50.350;6.576;2022-12-18T06:37:56;97138.63;;;-12.99;92.67
23229;BME280;11783;50.350;6.576;2022-12-18T06:40:21;97136.41;;;-13.07;91.61
23229;BME280;11783;50.350;6.576;2022-12-18T06:42:46;97131.38;;;-13.08;91.70
23229;BME280;11783;50.350;6.576;2022-12-18T06:45:15;97127.19;;;-13.09;92.65
23229;BME280;11783;50.350;6.576;2022-12-18T06:47:40;97120.31;;;-13.09;92.61
23229;BME280;11783;50.350;6.576;2022-12-18T06:50:06;97124.38;;;-13.05;92.76
23229;BME280;11783;50.350;6.576;2022-12-18T06:52:32;97137.91;;;-13.03;92.51
23229;BME280;11783;50.350;6.576;2022-12-18T06:54:57;97124.53;;;-13.08;92.16
23229;BME280;11783;50.350;6.576;2022-12-18T06:57:23;97129.81;;;-13.11;92.67
23229;BME280;11783;50.350;6.576;2022-12-18T06:59:48;97137.50;;;-13.11;92.22
23229;BME280;11783;50.350;6.576;2022-12-18T07:02:13;97139.22;;;-13.11;92.41
23229;BME280;11783;50.350;6.576;2022-12-18T07:04:39;97146.16;;;-13.13;92.23
23229;BME280;11783;50.350;6.576;2022-12-18T07:07:04;97144.09;;;-13.07;92.22
23229;BME280;11783;50.350;6.576;2022-12-18T07:09:30;97147.78;;;-13.12;92.55
23229;BME280;11783;50.350;6.576;2022-12-18T07:11:55;97150.50;;;-13.16;92.67
23229;BME280;11783;50.350;6.576;2022-12-18T07:14:20;97143.75;;;-13.17;93.01
23229;BME280;11783;50.350;6.576;2022-12-18T07:16:46;97158.03;;;-13.12;92.74
23229;BME280;11783;50.350;6.576;2022-12-18T07:19:11;97157.13;;;-13.11;92.79
23229;BME280;11783;50.350;6.576;2022-12-18T07:21:36;97158.84;;;-13.12;93.16
23229;BME280;11783;50.350;6.576;2022-12-18T07:24:02;97140.03;;;-13.11;93.61
23229;BME280;11783;50.350;6.576;2022-12-18T07:26:27;97149.22;;;-13.07;93.04
23229;BME280;11783;50.350;6.576;2022-12-18T07:28:55;97149.03;;;-13.20;92.71
23229;BME280;11783;50.350;6.576;2022-12-18T07:31:21;97153.69;;;-13.28;92.70
23229;BME280;11783;50.350;6.576;2022-12-18T07:33:47;97148.56;;;-13.28;93.04
23229;BME280;11783;50.350;6.576;2022-12-18T07:36:13;97157.66;;;-13.22;92.83
23229;BME280;11783;50.350;6.576;2022-12-18T07:38:39;97151.34;;;-13.15;93.08
23229;BME280;11783;50.350;6.576;2022-12-18T07:41:07;97148.47;;;-13.09;93.29
23229;BME280;11783;50.350;6.576;2022-12-18T07:43:34;97143.88;;;-13.02;93.47
23229;BME280;11783;50.350;6.576;2022-12-18T07:45:59;97136.19;;;-13.02;92.80
23229;BME280;11783;50.350;6.576;2022-12-18T07:48:25;97134.47;;;-13.02;92.78
23229;BME280;11783;50.350;6.576;2022-12-18T07:50:50;97128.22;;;-12.96;92.69
23229;BME280;11783;50.350;6.576;2022-12-18T07:53:15;97123.03;;;-12.95;92.62
23229;BME280;11783;50.350;6.576;2022-12-18T07:55:41;97118.66;;;-12.93;92.53
23229;BME280;11783;50.350;6.576;2022-12-18T07:58:08;97115.13;;;-12.90;92.64
23229;BME280;11783;50.350;6.576;2022-12-18T08:00:34;97101.16;;;-12.85;92.80
23229;BME280;11783;50.350;6.576;2022-12-18T08:03:00;97113.97;;;-12.85;92.72
23229;BME280;11783;50.350;6.576;2022-12-18T08:05:26;97107.94;;;-12.84;93.05
23229;BME280;11783;50.350;6.576;2022-12-18T08:07:51;97100.22;;;-12.82;92.83
23229;BME280;11783;50.350;6.576;2022-12-18T08:10:17;97098.41;;;-12.80;93.36
23229;BME280;11783;50.350;6.576;2022-12-18T08:12:42;97093.13;;;-12.77;93.77
23229;BME280;11783;50.350;6.576;2022-12-18T08:15:08;97096.91;;;-12.68;94.02
23229;BME280;11783;50.350;6.576;2022-12-18T08:17:33;97087.88;;;-12.58;94.55
23229;BME280;11783;50.350;6.576;2022-12-18T08:19:58;97094.22;;;-12.49;93.82
23229;BME280;11783;50.350;6.576;2022-12-18T08:22:24;97090.63;;;-12.45;94.38
23229;BME280;11783;50.350;6.576;2022-12-18T08:24:49;97088.56;;;-12.39;94.32
23229;BME280;11783;50.350;6.576;2022-12-18T08:27:15;97081.69;;;-12.38;94.50
23229;BME280;11783;50.350;6.576;2022-12-18T08:29:40;97080.44;;;-12.31;94.76
23229;BME280;11783;50.350;6.576;2022-12-18T08:32:05;97084.25;;;-12.23;94.39
23229;BME280;11783;50.350;6.576;2022-12-18T08:34:31;97093.34;;;-12.17;94.43
23229;BME280;11783;50.350;6.576;2022-12-18T08:36:56;97088.13;;;-12.15;93.92
23229;BME280;11783;50.350;6.576;2022-12-18T08:39:21;97094.53;;;-12.07;94.21
23229;BME280;11783;50.350;6.576;2022-12-18T08:41:46;97086.91;;;-12.08;94.58
23229;BME280;11783;50.350;6.576;2022-12-18T08:44:32;97082.34;;;-12.03;94.75
23229;BME280;11783;50.350;6.576;2022-12-18T08:47:04;97086.41;;;-11.99;94.81
23229;BME280;11783;50.350;6.576;2022-12-18T08:49:29;97093.84;;;-11.95;94.24
23229;BME280;11783;50.350;6.576;2022-12-18T08:51:55;97087.63;;;-11.90;94.27
23229;BME280;11783;50.350;6.576;2022-12-18T08:54:22;97087.94;;;-11.81;95.11
23229;BME280;11783;50.350;6.576;2022-12-18T08:56:47;97089.97;;;-11.72;95.06
23229;BME280;11783;50.350;6.576;2022-12-18T08:59:12;97092.38;;;-11.69;95.36
23229;BME280;11783;50.350;6.576;2022-12-18T09:01:38;97092.94;;;-11.64;94.96
23229;BME280;11783;50.350;6.576;2022-12-18T09:04:03;97094.59;;;-11.63;95.25
23229;BME280;11783;50.350;6.576;2022-12-18T09:06:28;97100.09;;;-11.54;94.88
23229;BME280;11783;50.350;6.576;2022-12-18T09:08:54;97111.88;;;-11.50;95.57
23229;BME280;11783;50.350;6.576;2022-12-18T09:11:27;97097.88;;;-11.45;96.15
23229;BME280;11783;50.350;6.576;2022-12-18T09:13:54;97099.91;;;-11.36;95.48
23229;BME280;11783;50.350;6.576;2022-12-18T09:16:20;97097.91;;;-11.31;95.86
23229;BME280;11783;50.350;6.576;2022-12-18T09:18:45;97095.81;;;-11.24;97.17
23229;BME280;11783;50.350;6.576;2022-12-18T09:21:14;97097.03;;;-11.15;96.95
23229;BME280;11783;50.350;6.576;2022-12-18T09:23:40;97098.88;;;-11.03;96.84
23229;BME280;11783;50.350;6.576;2022-12-18T09:26:06;97099.38;;;-10.96;97.18
23229;BME280;11783;50.350;6.576;2022-12-18T09:28:32;97083.78;;;-10.93;99.67
23229;BME280;11783;50.350;6.576;2022-12-18T09:30:57;97081.19;;;-10.79;100.00
23229;BME280;11783;50.350;6.576;2022-12-18T09:33:23;97076.16;;;-10.66;100.00
23229;BME280;11783;50.350;6.576;2022-12-18T09:35:48;97076.25;;;-10.54;100.00
23229;BME280;11783;50.350;6.576;2022-12-18T09:38:17;97059.00;;;-10.37;100.00
23229;BME280;11783;50.350;6.576;2022-12-18T09:40:47;97058.66;;;-10.19;100.00
23229;BME280;11783;50.350;6.576;2022-12-18T09:43:26;97064.31;;;-9.99;100.00
23229;BME280;11783;50.350;6.576;2022-12-18T09:46:07;97063.81;;;-9.92;100.00
23229;BME280;11783;50.350;6.576;2022-12-18T09:48:41;97055.22;;;-9.78;100.00
23229;BME280;11783;50.350;6.576;2022-12-18T09:51:14;97047.38;;;-9.62;100.00
23229;BME280;11783;50.350;6.576;2022-12-18T09:53:43;97045.63;;;-9.49;100.00
23229;BME280;11783;50.350;6.576;2022-12-18T09:56:16;97048.56;;;-9.28;100.00
23229;BME280;11783;50.350;6.576;2022-12-18T09:58:47;97056.84;;;-9.10;100.00
23229;BME280;11783;50.350;6.576;2022-12-18T10:01:21;97053.75;;;-8.90;100.00
23229;BME280;11783;50.350;6.576;2022-12-18T10:03:47;97051.38;;;-8.68;100.00
23229;BME280;11783;50.350;6.576;2022-12-18T10:11:40;97045.13;;;-8.03;100.00
23229;BME280;11783;50.350;6.576;2022-12-18T10:14:41;97042.34;;;-7.76;100.00
23229;BME280;11783;50.350;6.576;2022-12-18T10:20:32;97032.81;;;-7.17;100.00
23229;BME280;11783;50.350;6.576;2022-12-18T10:25:40;97029.97;;;-6.67;100.00
23229;BME280;11783;50.350;6.576;2022-12-18T10:28:14;97025.81;;;-6.36;100.00
23229;BME280;11783;50.350;6.576;2022-12-18T10:30:42;97021.31;;;-6.01;100.00
23229;BME280;11783;50.350;6.576;2022-12-18T10:33:23;97011.34;;;-5.73;100.00
23229;BME280;11783;50.350;6.576;2022-12-18T10:35:53;96998.28;;;-5.51;100.00
23229;BME280;11783;50.350;6.576;2022-12-18T10:38:23;96999.56;;;-5.25;100.00
23229;BME280;11783;50.350;6.576;2022-12-18T10:43:23;97009.03;;;-4.93;100.00
23229;BME280;11783;50.350;6.576;2022-12-18T10:48:26;96993.66;;;-4.64;100.00
23229;BME280;11783;50.350;6.576;2022-12-18T10:50:53;96997.78;;;-4.52;100.00
23229;BME280;11783;50.350;6.576;2022-12-18T10:53:26;97008.22;;;-4.42;100.00
23229;BME280;11783;50.350;6.576;2022-12-18T10:55:54;97006.09;;;-4.28;100.00
23229;BME280;11783;50.350;6.576;2022-12-18T11:01:20;97009.41;;;-4.06;100.00
23229;BME280;11783;50.350;6.576;2022-12-18T11:04:00;97008.88;;;-4.00;100.00
23229;BME280;11783;50.350;6.576;2022-12-18T11:06:26;97009.81;;;-4.01;99.45
23229;BME280;11783;50.350;6.576;2022-12-18T11:11:28;97009.84;;;-3.91;98.22
23229;BME280;11783;50.350;6.576;2022-12-18T11:13:58;97015.06;;;-3.82;99.35
23229;BME280;11783;50.350;6.576;2022-12-18T11:16:25;97017.09;;;-3.76;98.65
23229;BME280;11783;50.350;6.576;2022-12-18T11:18:51;97014.38;;;-3.74;98.40
23229;BME280;11783;50.350;6.576;2022-12-18T11:21:17;97021.38;;;-3.65;97.68
23229;BME280;11783;50.350;6.576;2022-12-18T11:23:51;97013.44;;;-3.54;97.51
23229;BME280;11783;50.350;6.576;2022-12-18T11:26:17;97014.25;;;-3.53;96.06
23229;BME280;11783;50.350;6.576;2022-12-18T11:28:47;97004.28;;;-3.39;96.07
23229;BME280;11783;50.350;6.576;2022-12-18T11:31:27;97004.00;;;-3.36;95.96
23229;BME280;11783;50.350;6.576;2022-12-18T11:34:05;96985.13;;;-3.38;93.47
23229;BME280;11783;50.350;6.576;2022-12-18T11:36:42;96981.56;;;-3.37;93.94
23229;BME280;11783;50.350;6.576;2022-12-18T11:39:31;96983.22;;;-3.26;94.31
23229;BME280;11783;50.350;6.576;2022-12-18T11:42:01;96971.84;;;-3.25;93.96
23229;BME280;11783;50.350;6.576;2022-12-18T11:44:52;96978.69;;;-3.14;93.52
23229;BME280;11783;50.350;6.576;2022-12-18T11:47:29;96972.53;;;-3.13;93.43
23229;BME280;11783;50.350;6.576;2022-12-18T11:50:00;96964.31;;;-3.09;93.20
23229;BME280;11783;50.350;6.576;2022-12-18T11:52:40;96969.75;;;-3.02;92.44
23229;BME280;11783;50.350;6.576;2022-12-18T12:01:42;96948.66;;;-2.89;91.76
23229;BME280;11783;50.350;6.576;2022-12-18T12:10:50;96925.59;;;-2.75;89.72
23229;BME280;11783;50.350;6.576;2022-12-18T12:15:47;96920.00;;;-2.80;89.41
23229;BME280;11783;50.350;6.576;2022-12-18T12:18:41;96915.72;;;-2.71;89.80
23229;BME280;11783;50.350;6.576;2022-12-18T12:21:39;96918.00;;;-2.58;88.85
23229;BME280;11783;50.350;6.576;2022-12-18T12:27:32;96909.47;;;-2.51;88.44
23229;BME280;11783;50.350;6.576;2022-12-18T12:41:04;96890.59;;;-2.35;89.10
23229;BME280;11783;50.350;6.576;2022-12-18T12:43:52;96888.00;;;-2.35;88.50
23229;BME280;11783;50.350;6.576;2022-12-18T12:46:49;96884.28;;;-2.32;88.66
23229;BME280;11783;50.350;6.576;2022-12-18T12:49:26;96891.66;;;-2.28;88.18
23229;BME280;11783;50.350;6.576;2022-12-18T12:52:05;96886.97;;;-2.24;87.74
23229;BME280;11783;50.350;6.576;2022-12-18T12:54:34;96893.00;;;-2.24;88.09
23229;BME280;11783;50.350;6.576;2022-12-18T13:00:21;96880.94;;;-2.07;87.87
23229;BME280;11783;50.350;6.576;2022-12-18T13:02:51;96878.59;;;-2.18;86.58
23229;BME280;11783;50.350;6.576;2022-12-18T13:08:11;96886.16;;;-2.07;86.67
23229;BME280;11783;50.350;6.576;2022-12-18T13:10:41;96879.97;;;-2.06;85.20
23229;BME280;11783;50.350;6.576;2022-12-18T13:13:12;96873.53;;;-2.02;84.74
23229;BME280;11783;50.350;6.576;2022-12-18T13:18:20;96871.28;;;-1.97;84.98
23229;BME280;11783;50.350;6.576;2022-12-18T13:21:04;96863.19;;;-1.94;84.44
23229;BME280;11783;50.350;6.576;2022-12-18T13:23:40;96865.03;;;-1.86;84.50
23229;BME280;11783;50.350;6.576;2022-12-18T13:28:58;96853.19;;;-1.80;83.85
23229;BME280;11783;50.350;6.576;2022-12-18T13:34:25;96859.06;;;-1.78;84.51
23229;BME280;11783;50.350;6.576;2022-12-18T13:36:54;96851.25;;;-1.78;84.01
23229;BME280;11783;50.350;6.576;2022-12-18T13:39:31;96849.00;;;-1.73;84.50
23229;BME280;11783;50.350;6.576;2022-12-18T13:44:40;96850.50;;;-1.71;83.93
23229;BME280;11783;50.350;6.576;2022-12-18T13:47:33;96851.16;;;-1.69;82.46
23229;BME280;11783;50.350;6.576;2022-12-18T13:50:29;96845.94;;;-1.69;83.81
23229;BME280;11783;50.350;6.576;2022-12-18T13:52:58;96843.75;;;-1.81;84.45
23229;BME280;11783;50.350;6.576;2022-12-18T13:58:04;96844.25;;;-1.78;84.82
23229;BME280;11783;50.350;6.576;2022-12-18T14:00:32;96846.50;;;-1.83;85.78
23229;BME280;11783;50.350;6.576;2022-12-18T14:03:01;96844.41;;;-1.79;84.63
23229;BME280;11783;50.350;6.576;2022-12-18T14:05:33;96837.88;;;-1.84;85.99
23229;BME280;11783;50.350;6.576;2022-12-18T14:08:08;96833.38;;;-1.73;85.59
23229;BME280;11783;50.350;6.576;2022-12-18T14:10:35;96837.63;;;-1.72;85.73
23229;BME280;11783;50.350;6.576;2022-12-18T14:13:06;96833.72;;;-1.68;85.64
23229;BME280;11783;50.350;6.576;2022-12-18T14:15:51;96829.88;;;-1.64;85.81
23229;BME280;11783;50.350;6.576;2022-12-18T14:18:26;96821.09;;;-1.63;86.38
23229;BME280;11783;50.350;6.576;2022-12-18T14:20:59;96825.31;;;-1.62;85.36
23229;BME280;11783;50.350;6.576;2022-12-18T14:23:34;96830.84;;;-1.65;85.02
23229;BME280;11783;50.350;6.576;2022-12-18T14:26:02;96811.31;;;-1.61;86.22
23229;BME280;11783;50.350;6.576;2022-12-18T14:28:29;96819.28;;;-1.63;86.32
23229;BME280;11783;50.350;6.576;2022-12-18T14:30:54;96814.28;;;-1.56;86.18
23229;BME280;11783;50.350;6.576;2022-12-18T14:33:27;96814.75;;;-1.61;87.79
23229;BME280;11783;50.350;6.576;2022-12-18T14:35:58;96819.28;;;-1.63;86.31
23229;BME280;11783;50.350;6.576;2022-12-18T14:38:28;96827.44;;;-1.66;86.83
23229;BME280;11783;50.350;6.576;2022-12-18T14:40:59;96814.91;;;-1.62;87.32
23229;BME280;11783;50.350;6.576;2022-12-18T14:43:26;96821.75;;;-1.61;87.13
23229;BME280;11783;50.350;6.576;2022-12-18T14:45:52;96825.03;;;-1.59;87.13